Time;durP1;ratioP1;P1;durP2;ratioP2;P2;SDS_P1;SDS_P2;PMS_P1;PMS_P2;Temp;Humidity;BMP_temperature;BMP_pressure;BME280_temperature;BME280_humidity;BME280_pressure;Samples;Min_cycle;Max_cycle;Signal;HPM_P1;HPM_P2
2023/12/29 00:02:23;;;;;;;2.03;0.63;;;21.00;40.40;;;;;;4962459;28;20035;-57
2023/12/29 00:04:50;;;;;;;1.63;0.70;;;21.00;40.40;;;;;;4972275;28;20023;-60
2023/12/29 00:07:16;;;;;;;2.25;0.68;;;20.90;40.50;;;;;;4970732;28;20038;-57
2023/12/29 00:09:41;;;;;;;1.50;0.60;;;21.00;40.50;;;;;;4965950;28;20361;-58
2023/12/29 00:12:08;;;;;;;2.10;0.70;;;20.90;40.40;;;;;;4967854;28;20365;-59
2023/12/29 00:14:37;;;;;;;2.92;0.70;;;20.90;40.40;;;;;;4968855;28;20113;-55
2023/12/29 00:17:03;;;;;;;1.45;0.52;;;20.90;40.50;;;;;;4969627;28;20434;-55
2023/12/29 00:19:29;;;;;;;1.52;0.70;;;20.90;40.50;;;;;;4967453;28;20027;-55
2023/12/29 00:21:54;;;;;;;2.28;0.90;;;20.90;40.50;;;;;;4972313;28;20050;-57
2023/12/29 00:24:20;;;;;;;1.50;0.70;;;20.90;40.60;;;;;;4969038;28;20367;-59
2023/12/29 00:26:47;;;;;;;3.50;0.98;;;20.90;40.60;;;;;;4963665;28;20433;-57
2023/12/29 00:29:15;;;;;;;2.00;0.80;;;20.90;40.60;;;;;;4960690;28;20043;-59
2023/12/29 00:31:41;;;;;;;1.95;0.70;;;20.80;40.50;;;;;;4966141;28;20035;-59
2023/12/29 00:34:07;;;;;;;2.55;0.65;;;20.90;40.60;;;;;;4972561;28;20041;-55
2023/12/29 00:36:33;;;;;;;2.13;0.68;;;20.90;40.70;;;;;;4961975;28;20433;-50
2023/12/29 00:38:59;;;;;;;2.58;0.73;;;20.80;40.60;;;;;;4969233;28;20426;-55
2023/12/29 00:41:24;;;;;;;1.92;0.60;;;20.80;40.70;;;;;;4961964;28;20042;-58
2023/12/29 00:43:50;;;;;;;1.83;0.60;;;20.80;40.70;;;;;;4964428;28;20038;-51
2023/12/29 00:46:16;;;;;;;1.73;0.77;;;20.80;40.80;;;;;;4967090;28;20101;-62
2023/12/29 00:48:42;;;;;;;1.20;0.70;;;20.80;40.90;;;;;;4967339;28;20338;-57
2023/12/29 00:51:08;;;;;;;1.90;0.77;;;20.80;40.90;;;;;;4958769;28;20027;-51
2023/12/29 00:53:35;;;;;;;1.65;0.70;;;20.80;40.90;;;;;;4964240;28;20350;-60
2023/12/29 00:56:01;;;;;;;1.58;0.60;;;20.80;41.00;;;;;;4967897;28;20023;-58
2023/12/29 00:58:26;;;;;;;1.45;0.57;;;20.80;41.00;;;;;;4967997;28;20027;-57
2023/12/29 01:00:53;;;;;;;1.80;0.68;;;20.80;41.10;;;;;;4965857;28;20033;-55
2023/12/29 01:03:20;;;;;;;2.22;1.00;;;20.80;41.10;;;;;;4960337;28;20143;-59
2023/12/29 01:05:46;;;;;;;2.72;0.70;;;20.80;41.10;;;;;;4963872;28;20035;-56
2023/12/29 01:08:12;;;;;;;1.83;0.60;;;20.80;41.10;;;;;;4964733;28;20521;-60
2023/12/29 01:10:38;;;;;;;1.95;0.60;;;20.70;41.10;;;;;;4964961;28;20050;-57
2023/12/29 01:13:04;;;;;;;1.92;0.82;;;20.70;41.10;;;;;;4962784;28;20037;-59
2023/12/29 01:15:29;;;;;;;1.10;0.60;;;20.70;41.10;;;;;;4968982;28;20485;-54
2023/12/29 01:17:55;;;;;;;1.63;0.68;;;20.70;41.10;;;;;;4962172;28;20023;-56
2023/12/29 01:20:21;;;;;;;2.88;0.85;;;20.70;41.20;;;;;;4961848;28;20508;-55
2023/12/29 01:22:49;;;;;;;2.17;0.70;;;20.70;41.20;;;;;;4963929;28;20035;-54
2023/12/29 01:25:14;;;;;;;2.05;0.80;;;20.70;41.20;;;;;;4958852;28;20142;-57
2023/12/29 01:27:41;;;;;;;1.35;0.60;;;20.70;41.20;;;;;;4960318;28;20054;-56
2023/12/29 01:30:08;;;;;;;2.05;0.70;;;20.70;41.20;;;;;;4969094;28;20037;-54
2023/12/29 01:32:34;;;;;;;1.95;0.63;;;20.70;41.30;;;;;;4971641;28;20109;-58
2023/12/29 01:34:59;;;;;;;1.95;0.60;;;20.70;41.30;;;;;;4958435;28;20031;-59
2023/12/29 01:37:25;;;;;;;1.75;0.60;;;20.60;41.30;;;;;;4959913;28;20105;-57
2023/12/29 01:39:51;;;;;;;1.58;0.47;;;20.60;41.30;;;;;;4969519;28;20031;-58
2023/12/29 01:42:16;;;;;;;1.92;0.63;;;20.60;41.40;;;;;;4966378;28;20434;-60
2023/12/29 01:44:44;;;;;;;2.70;0.60;;;20.60;41.40;;;;;;4961034;28;20464;-58
2023/12/29 01:47:16;;;;;;;1.45;0.70;;;20.60;41.40;;;;;;4960653;28;20077;-58
2023/12/29 01:49:46;;;;;;;1.80;0.47;;;20.60;41.50;;;;;;4964982;28;20046;-57
2023/12/29 01:52:15;;;;;;;1.15;0.57;;;20.60;41.50;;;;;;4958772;28;20023;-59
2023/12/29 01:54:42;;;;;;;2.05;0.70;;;20.60;41.50;;;;;;4968559;28;20030;-58
2023/12/29 01:57:08;;;;;;;2.97;0.90;;;20.60;41.60;;;;;;4972841;28;20085;-54
2023/12/29 01:59:35;;;;;;;2.13;0.68;;;20.60;41.60;;;;;;4958547;28;20027;-61
2023/12/29 02:02:02;;;;;;;1.27;0.70;;;20.60;41.60;;;;;;4966652;28;20027;-59
2023/12/29 02:04:28;;;;;;;1.50;0.80;;;20.60;41.60;;;;;;4961908;28;20480;-54
2023/12/29 02:06:54;;;;;;;1.98;0.80;;;20.60;41.70;;;;;;4957464;28;20378;-59
2023/12/29 02:09:20;;;;;;;1.85;0.57;;;20.60;41.70;;;;;;4965741;28;20039;-54
2023/12/29 02:11:47;;;;;;;1.48;0.50;;;20.60;42.30;;;;;;4960869;28;20019;-61
2023/12/29 02:14:15;;;;;;;1.90;0.43;;;20.60;41.70;;;;;;4966946;28;20038;-57
2023/12/29 02:17:16;;;;;;;1.33;0.50;;;20.60;41.80;;;;;;4968608;28;20027;-59
2023/12/29 02:19:49;;;;;;;1.50;0.60;;;20.60;41.80;;;;;;4962007;28;20401;-55
2023/12/29 02:22:15;;;;;;;1.50;0.50;;;20.50;41.80;;;;;;4964415;28;20098;-58
2023/12/29 02:24:48;;;;;;;1.48;0.43;;;20.50;41.80;;;;;;4968471;28;20529;-53
2023/12/29 02:27:27;;;;;;;0.73;0.43;;;20.50;42.50;;;;;;4956834;28;20046;-59
2023/12/29 02:30:04;;;;;;;1.75;0.50;;;20.50;41.80;;;;;;4967547;28;20343;-58
2023/12/29 02:32:31;;;;;;;0.88;0.40;;;20.50;41.90;;;;;;4985796;28;20042;-57
2023/12/29 02:34:59;;;;;;;1.40;0.50;;;20.50;41.90;;;;;;4956362;28;20131;-55
2023/12/29 02:37:29;;;;;;;1.25;0.50;;;20.50;42.00;;;;;;4962719;28;20031;-55
2023/12/29 02:39:57;;;;;;;1.05;0.45;;;20.50;42.10;;;;;;4957758;28;20035;-54
2023/12/29 02:42:23;;;;;;;0.90;0.40;;;20.50;42.00;;;;;;4963420;28;20101;-60
2023/12/29 02:44:48;;;;;;;2.30;0.60;;;20.50;42.10;;;;;;4963157;28;20058;-56
2023/12/29 02:47:16;;;;;;;1.75;0.52;;;20.50;42.10;;;;;;4965845;28;20051;-58
2023/12/29 02:49:42;;;;;;;2.38;0.60;;;20.50;42.10;;;;;;4967017;28;20469;-56
2023/12/29 02:52:08;;;;;;;1.75;0.55;;;20.50;42.20;;;;;;4972742;28;20065;-56
2023/12/29 02:54:34;;;;;;;1.13;0.30;;;20.50;42.20;;;;;;4967176;28;20054;-55
2023/12/29 02:57:00;;;;;;;0.95;0.68;;;20.40;42.20;;;;;;4965517;28;20071;-61
2023/12/29 02:59:25;;;;;;;1.55;0.50;;;20.50;42.30;;;;;;4968738;28;20023;-59
2023/12/29 03:01:51;;;;;;;0.90;0.60;;;20.40;42.30;;;;;;4972859;28;20477;-61
2023/12/29 03:04:17;;;;;;;1.27;0.60;;;20.50;42.30;;;;;;4970199;28;20081;-60
2023/12/29 03:06:43;;;;;;;2.35;0.50;;;20.40;42.30;;;;;;4973641;28;20129;-55
2023/12/29 03:09:09;;;;;;;0.88;0.40;;;20.40;42.30;;;;;;4966383;28;20019;-55
2023/12/29 03:11:34;;;;;;;1.52;0.50;;;20.50;42.40;;;;;;4961175;28;20042;-57
2023/12/29 03:14:00;;;;;;;1.52;0.65;;;20.40;42.40;;;;;;4967641;28;20042;-60
2023/12/29 03:16:26;;;;;;;0.98;0.50;;;20.40;42.40;;;;;;4961099;28;20039;-60
2023/12/29 03:18:52;;;;;;;1.42;0.77;;;20.40;42.50;;;;;;4964657;28;20350;-60
2023/12/29 03:21:17;;;;;;;2.42;0.68;;;20.40;42.50;;;;;;4968099;28;20417;-61
2023/12/29 03:23:43;;;;;;;2.15;0.70;;;20.40;42.50;;;;;;4947491;28;20039;-56
2023/12/29 03:26:09;;;;;;;1.00;0.60;;;20.40;42.50;;;;;;4966527;28;20105;-59
2023/12/29 03:28:35;;;;;;;2.63;0.80;;;20.40;42.60;;;;;;4968047;28;20043;-59
2023/12/29 03:31:00;;;;;;;1.40;0.40;;;20.40;42.60;;;;;;4965681;28;20034;-59
2023/12/29 03:33:28;;;;;;;1.58;0.68;;;20.40;42.60;;;;;;4969246;28;20031;-60
2023/12/29 03:35:54;;;;;;;1.55;0.60;;;20.40;42.60;;;;;;4965985;28;20070;-59
2023/12/29 03:38:20;;;;;;;1.80;0.40;;;20.40;42.70;;;;;;4961561;28;20117;-61
2023/12/29 03:40:46;;;;;;;1.67;0.40;;;20.40;42.60;;;;;;4965329;28;20037;-59
2023/12/29 03:43:12;;;;;;;2.15;0.65;;;20.40;42.70;;;;;;4957619;28;20054;-56
2023/12/29 03:45:38;;;;;;;1.48;0.43;;;20.30;42.60;;;;;;4968366;28;20063;-56
2023/12/29 03:48:03;;;;;;;2.03;0.57;;;20.40;42.70;;;;;;4964857;28;20139;-60
2023/12/29 03:50:29;;;;;;;3.83;0.90;;;20.40;42.70;;;;;;4969723;28;20039;-55
2023/12/29 03:52:56;;;;;;;2.42;0.77;;;20.40;42.70;;;;;;4972483;28;20034;-59
2023/12/29 03:55:21;;;;;;;2.70;0.82;;;20.40;42.70;;;;;;4970205;28;20117;-59
2023/12/29 03:57:47;;;;;;;1.48;0.70;;;20.30;42.70;;;;;;4970572;28;20134;-58
2023/12/29 04:00:14;;;;;;;2.30;0.50;;;20.30;42.70;;;;;;4967639;28;20031;-54
2023/12/29 04:02:40;;;;;;;1.70;0.70;;;20.40;42.70;;;;;;4963263;28;20027;-55
2023/12/29 04:05:08;;;;;;;1.05;0.52;;;20.30;42.70;;;;;;4969400;28;20093;-57
2023/12/29 04:07:34;;;;;;;1.65;0.60;;;20.40;42.70;;;;;;4968583;28;20051;-58
2023/12/29 04:10:00;;;;;;;1.05;0.43;;;20.30;42.70;;;;;;4971578;28;20035;-55
2023/12/29 04:12:26;;;;;;;2.30;0.82;;;20.30;42.70;;;;;;4969651;28;20446;-59
2023/12/29 04:14:51;;;;;;;1.55;0.60;;;20.30;42.70;;;;;;4963786;28;20469;-56
2023/12/29 04:17:17;;;;;;;2.03;0.70;;;20.30;42.70;;;;;;4964630;28;20059;-56
2023/12/29 04:19:43;;;;;;;2.03;0.70;;;20.30;42.70;;;;;;4967425;28;20031;-59
2023/12/29 04:22:09;;;;;;;2.13;0.63;;;20.30;42.60;;;;;;4964825;28;20031;-59
2023/12/29 04:24:37;;;;;;;2.42;0.60;;;20.30;42.60;;;;;;4960790;28;20378;-60
2023/12/29 04:27:04;;;;;;;2.28;0.80;;;20.30;42.70;;;;;;4972017;28;20046;-58
2023/12/29 04:29:31;;;;;;;1.50;0.60;;;20.30;42.60;;;;;;4962976;28;20102;-57
2023/12/29 04:31:56;;;;;;;1.52;0.60;;;20.30;42.60;;;;;;4963542;28;20423;-60
2023/12/29 04:34:22;;;;;;;2.00;0.68;;;20.30;42.60;;;;;;4966074;28;20072;-55
2023/12/29 04:36:48;;;;;;;2.10;0.70;;;20.30;42.60;;;;;;4964072;28;20042;-55
2023/12/29 04:39:15;;;;;;;1.98;0.63;;;20.30;42.60;;;;;;4972505;28;20023;-58
2023/12/29 04:41:44;;;;;;;1.90;0.68;;;20.30;42.60;;;;;;4964259;28;20339;-58
2023/12/29 04:44:10;;;;;;;2.13;0.85;;;20.30;42.60;;;;;;4967702;28;20109;-57
2023/12/29 04:46:36;;;;;;;2.33;0.73;;;20.30;42.60;;;;;;4966309;28;20039;-54
2023/12/29 04:49:02;;;;;;;2.05;0.60;;;20.30;42.60;;;;;;4969744;28;20065;-54
2023/12/29 04:51:28;;;;;;;1.73;0.77;;;20.20;42.50;;;;;;4967108;28;20031;-59
2023/12/29 04:53:54;;;;;;;2.28;0.60;;;20.30;42.50;;;;;;4966693;28;20046;-54
2023/12/29 04:56:19;;;;;;;2.65;0.80;;;20.20;42.50;;;;;;4966951;28;20350;-62
2023/12/29 04:58:45;;;;;;;1.60;0.73;;;20.20;42.50;;;;;;4963452;28;20152;-60
2023/12/29 05:01:11;;;;;;;1.98;0.60;;;20.20;42.50;;;;;;4965427;28;20521;-59
2023/12/29 05:03:37;;;;;;;1.73;0.68;;;20.20;42.50;;;;;;4965641;28;20054;-60
2023/12/29 05:06:03;;;;;;;2.47;0.75;;;20.20;42.50;;;;;;4966721;28;20362;-59
2023/12/29 05:08:28;;;;;;;2.22;0.90;;;20.20;42.40;;;;;;4967220;28;20059;-60
2023/12/29 05:10:55;;;;;;;1.98;0.70;;;20.20;42.40;;;;;;4966569;28;20037;-57
2023/12/29 05:13:21;;;;;;;2.17;0.70;;;20.20;42.40;;;;;;4961523;28;20410;-54
2023/12/29 05:15:47;;;;;;;1.75;0.70;;;20.20;42.40;;;;;;4963754;28;20023;-59
2023/12/29 05:18:12;;;;;;;2.13;0.68;;;20.20;42.40;;;;;;4963890;28;20031;-59
2023/12/29 05:20:38;;;;;;;2.67;0.80;;;20.20;42.40;;;;;;4967538;28;20022;-58
2023/12/29 05:23:04;;;;;;;2.42;0.93;;;20.20;42.40;;;;;;4963257;28;20371;-57
2023/12/29 05:25:30;;;;;;;3.05;0.93;;;20.20;42.40;;;;;;4966139;28;20418;-55
2023/12/29 05:27:55;;;;;;;2.45;0.85;;;20.20;42.30;;;;;;4967521;28;20042;-62
2023/12/29 05:30:21;;;;;;;2.53;0.90;;;20.20;42.30;;;;;;4962209;28;20035;-57
2023/12/29 05:32:47;;;;;;;2.67;0.82;;;20.20;42.30;;;;;;4967182;28;20493;-60
2023/12/29 05:35:13;;;;;;;2.10;0.73;;;20.20;42.30;;;;;;4961808;28;20057;-61
2023/12/29 05:37:38;;;;;;;2.15;0.70;;;20.20;42.30;;;;;;4961447;28;20031;-59
2023/12/29 05:40:05;;;;;;;1.83;0.77;;;20.20;42.30;;;;;;4967451;28;20273;-59
2023/12/29 05:42:31;;;;;;;2.20;0.60;;;20.10;42.20;;;;;;4963930;28;20034;-59
2023/12/29 05:44:56;;;;;;;2.58;1.02;;;20.20;42.30;;;;;;4964617;28;20023;-58
2023/12/29 05:47:22;;;;;;;2.58;0.88;;;20.10;42.20;;;;;;4963050;28;20046;-56
2023/12/29 05:49:48;;;;;;;1.80;0.70;;;20.10;42.20;;;;;;4966895;28;20046;-59
2023/12/29 05:52:14;;;;;;;2.58;0.65;;;20.10;42.20;;;;;;4964431;28;20342;-55
2023/12/29 05:54:40;;;;;;;4.20;0.98;;;20.20;42.30;;;;;;4965546;28;20358;-59
2023/12/29 05:57:06;;;;;;;1.30;0.60;;;20.10;42.20;;;;;;4964457;28;20058;-55
2023/12/29 05:59:31;;;;;;;1.70;0.70;;;20.10;42.20;;;;;;4963533;28;20110;-57
2023/12/29 06:01:57;;;;;;;1.60;0.50;;;20.10;42.20;;;;;;4963049;28;20031;-59
2023/12/29 06:04:23;;;;;;;2.72;0.88;;;20.10;42.20;;;;;;4963194;28;20023;-59
2023/12/29 06:06:49;;;;;;;1.77;0.60;;;20.10;42.20;;;;;;4965877;28;20342;-58
2023/12/29 06:09:15;;;;;;;1.42;0.60;;;20.10;42.20;;;;;;4964161;28;20458;-60
2023/12/29 06:11:41;;;;;;;2.42;0.80;;;20.10;42.20;;;;;;4963793;28;20062;-57
2023/12/29 06:14:07;;;;;;;3.13;0.80;;;20.10;42.20;;;;;;4964817;28;20038;-57
2023/12/29 06:16:32;;;;;;;1.70;0.80;;;20.10;42.20;;;;;;4964137;28;20023;-60
2023/12/29 06:18:58;;;;;;;1.85;0.80;;;20.10;42.20;;;;;;4966471;28;20451;-60
2023/12/29 06:21:24;;;;;;;2.13;0.60;;;20.10;42.20;;;;;;4964773;28;20038;-60
2023/12/29 06:23:50;;;;;;;2.72;0.65;;;20.10;42.20;;;;;;4962294;28;20050;-59
2023/12/29 06:26:20;;;;;;;2.20;0.80;;;20.10;42.20;;;;;;4965090;28;20035;-60
2023/12/29 06:28:47;;;;;;;2.33;0.80;;;20.10;42.20;;;;;;4970199;28;20485;-60
2023/12/29 06:31:13;;;;;;;3.97;1.00;;;20.10;42.30;;;;;;4967951;28;20042;-58
2023/12/29 06:33:43;;;;;;;2.38;0.93;;;20.10;42.30;;;;;;4967911;28;20026;-58
2023/12/29 06:36:09;;;;;;;2.25;0.73;;;20.10;42.30;;;;;;4964361;28;20034;-60
2023/12/29 06:38:35;;;;;;;2.78;0.85;;;20.10;42.30;;;;;;4964333;28;20055;-59
2023/12/29 06:41:04;;;;;;;2.38;0.82;;;20.10;42.30;;;;;;4965597;28;20118;-59
2023/12/29 06:43:31;;;;;;;1.73;0.70;;;20.10;42.30;;;;;;4968497;28;20443;-59
2023/12/29 06:45:56;;;;;;;2.22;0.73;;;20.10;42.30;;;;;;4970510;28;20146;-59
2023/12/29 06:48:22;;;;;;;3.30;0.98;;;20.10;42.30;;;;;;4965851;28;20481;-61
2023/12/29 06:50:48;;;;;;;4.18;1.00;;;20.10;42.30;;;;;;4967332;28;20023;-58
2023/12/29 06:53:14;;;;;;;3.45;1.00;;;20.10;42.30;;;;;;4972951;28;20454;-58
2023/12/29 06:55:40;;;;;;;2.10;0.70;;;20.10;42.30;;;;;;4966097;28;20070;-57
2023/12/29 06:58:06;;;;;;;1.63;0.60;;;20.00;42.30;;;;;;4969813;28;20038;-57
2023/12/29 07:00:33;;;;;;;2.13;0.60;;;20.00;42.30;;;;;;4960852;28;20468;-60
2023/12/29 07:03:01;;;;;;;1.65;0.80;;;20.00;42.40;;;;;;4967438;28;20022;-60
2023/12/29 07:05:26;;;;;;;1.55;0.63;;;20.00;42.40;;;;;;4962622;28;20027;-59
2023/12/29 07:07:52;;;;;;;2.60;0.60;;;20.00;42.40;;;;;;4963553;28;20168;-57
2023/12/29 07:10:18;;;;;;;2.30;0.80;;;20.00;42.50;;;;;;4966383;28;20118;-61
2023/12/29 07:12:44;;;;;;;2.55;0.98;;;20.00;42.50;;;;;;4959677;28;20027;-59
2023/12/29 07:15:10;;;;;;;1.98;0.75;;;20.00;42.50;;;;;;4965360;28;20351;-61
2023/12/29 07:17:36;;;;;;;2.85;1.05;;;20.00;42.50;;;;;;4966428;28;20342;-62
2023/12/29 07:20:02;;;;;;;2.03;0.63;;;20.00;42.60;;;;;;4967278;28;20027;-57
2023/12/29 07:22:28;;;;;;;1.52;0.60;;;20.00;42.60;;;;;;4965695;28;20027;-57
2023/12/29 07:24:53;;;;;;;2.03;0.70;;;20.00;42.70;;;;;;4963884;28;20162;-56
2023/12/29 07:27:19;;;;;;;3.33;0.65;;;20.00;42.70;;;;;;4967702;28;20104;-59
2023/12/29 07:29:45;;;;;;;2.55;0.75;;;20.00;42.70;;;;;;4967481;28;20027;-59
2023/12/29 07:32:11;;;;;;;2.80;0.70;;;20.00;42.80;;;;;;4961101;28;20034;-55
2023/12/29 07:34:37;;;;;;;1.88;0.60;;;20.00;42.80;;;;;;4966020;28;20027;-53
2023/12/29 07:37:03;;;;;;;1.85;0.70;;;20.00;42.90;;;;;;4971741;28;20070;-55
2023/12/29 07:39:29;;;;;;;1.95;0.65;;;20.00;42.90;;;;;;4966726;28;20062;-52
2023/12/29 07:41:55;;;;;;;1.73;0.70;;;20.00;42.90;;;;;;4968234;28;20026;-57
2023/12/29 07:44:23;;;;;;;1.75;0.43;;;20.00;43.00;;;;;;4966379;28;20043;-57
2023/12/29 07:46:49;;;;;;;2.92;0.93;;;20.00;43.10;;;;;;4962148;28;20058;-58
2023/12/29 07:49:14;;;;;;;2.42;0.60;;;20.00;43.10;;;;;;4970792;28;20057;-56
2023/12/29 07:51:42;;;;;;;2.15;0.80;;;20.00;43.20;;;;;;4967372;28;20547;-54
2023/12/29 07:54:08;;;;;;;1.60;0.75;;;20.00;43.30;;;;;;4962688;28;20031;-61
2023/12/29 07:56:36;;;;;;;2.00;0.60;;;20.00;43.40;;;;;;4975303;28;20422;-59
2023/12/29 07:59:03;;;;;;;1.92;0.40;;;20.00;43.40;;;;;;4977727;28;20097;-58
2023/12/29 08:01:29;;;;;;;1.85;0.60;;;20.00;43.50;;;;;;4966098;28;20082;-55
2023/12/29 08:03:55;;;;;;;1.90;0.68;;;20.00;43.60;;;;;;4974782;28;20046;-59
2023/12/29 08:06:21;;;;;;;2.97;0.80;;;20.00;43.60;;;;;;4964542;28;20354;-58
2023/12/29 08:08:48;;;;;;;2.35;0.95;;;20.10;43.70;;;;;;4962490;28;20439;-60
2023/12/29 08:11:15;;;;;;;1.88;0.50;;;20.10;43.70;;;;;;4971311;28;20027;-53
2023/12/29 08:13:43;;;;;;;1.60;0.50;;;20.10;43.70;;;;;;4965842;28;20031;-57
2023/12/29 08:16:09;;;;;;;1.75;0.68;;;20.10;43.60;;;;;;4972902;28;20114;-58
2023/12/29 08:18:35;;;;;;;2.95;0.73;;;20.20;43.70;;;;;;4962930;28;20113;-56
2023/12/29 08:21:01;;;;;;;1.95;0.93;;;20.20;43.60;;;;;;4965101;28;20345;-59
2023/12/29 08:23:27;;;;;;;1.90;0.70;;;20.20;43.60;;;;;;4970941;28;20031;-61
2023/12/29 08:25:54;;;;;;;1.40;0.70;;;20.30;43.60;;;;;;4968921;28;20082;-58
2023/12/29 08:28:19;;;;;;;1.27;0.43;;;20.40;43.70;;;;;;4977812;28;20194;-57
2023/12/29 08:30:45;;;;;;;1.23;0.50;;;20.40;43.70;;;;;;4992658;28;20544;-57
2023/12/29 08:33:13;;;;;;;1.40;0.52;;;20.40;43.60;;;;;;4992785;28;20038;-56
2023/12/29 08:35:40;;;;;;;1.70;0.50;;;20.40;43.60;;;;;;4994564;28;20039;-57
2023/12/29 08:38:06;;;;;;;1.80;0.55;;;20.50;43.60;;;;;;4963283;28;20035;-60
2023/12/29 08:40:32;;;;;;;0.75;0.40;;;20.60;43.60;;;;;;4972864;28;20404;-59
2023/12/29 08:42:57;;;;;;;3.17;0.73;;;20.60;43.50;;;;;;4965117;28;20073;-60
2023/12/29 08:45:23;;;;;;;2.38;0.70;;;20.60;43.50;;;;;;4960838;28;20483;-60
2023/12/29 08:47:49;;;;;;;1.30;0.60;;;20.70;43.50;;;;;;4962138;28;20374;-58
2023/12/29 08:50:16;;;;;;;2.13;0.80;;;20.70;43.40;;;;;;4959761;28;20035;-59
2023/12/29 08:52:42;;;;;;;1.95;0.60;;;20.80;43.40;;;;;;4967712;28;20035;-62
2023/12/29 08:55:09;;;;;;;1.48;0.50;;;20.80;43.40;;;;;;4971930;28;20351;-59
2023/12/29 08:57:35;;;;;;;1.80;0.60;;;20.80;43.30;;;;;;4971278;28;20031;-60
2023/12/29 09:00:01;;;;;;;1.23;0.40;;;20.90;43.30;;;;;;4964162;28;20049;-61
2023/12/29 09:02:27;;;;;;;1.35;0.60;;;20.90;43.20;;;;;;4964251;28;20054;-59
2023/12/29 09:04:53;;;;;;;0.90;0.30;;;20.90;43.20;;;;;;4970088;28;20030;-58
2023/12/29 09:07:18;;;;;;;1.45;0.63;;;21.00;43.20;;;;;;4962667;28;20074;-58
2023/12/29 09:09:44;;;;;;;1.30;0.40;;;21.00;43.10;;;;;;4976275;28;20434;-57
2023/12/29 09:12:10;;;;;;;2.08;0.52;;;21.10;43.20;;;;;;4977191;28;20042;-60
2023/12/29 09:14:36;;;;;;;1.38;0.50;;;21.10;43.10;;;;;;4976686;28;20477;-60
2023/12/29 09:17:02;;;;;;;1.40;0.70;;;21.10;43.10;;;;;;4976221;28;20097;-61
2023/12/29 09:19:28;;;;;;;1.20;0.32;;;21.10;43.00;;;;;;4958544;28;20046;-60
2023/12/29 09:21:54;;;;;;;0.85;0.35;;;21.10;43.00;;;;;;4957009;29;20509;-60
2023/12/29 09:24:20;;;;;;;1.88;0.60;;;21.10;43.00;;;;;;4956924;28;20145;-59
2023/12/29 09:26:46;;;;;;;1.10;0.45;;;21.20;43.00;;;;;;4957320;29;20031;-58
2023/12/29 09:29:12;;;;;;;0.95;0.40;;;21.20;43.00;;;;;;4956061;29;20454;-58
2023/12/29 09:31:38;;;;;;;0.90;0.35;;;21.20;43.00;;;;;;4957647;29;20035;-57
2023/12/29 09:34:04;;;;;;;1.98;0.52;;;21.20;42.90;;;;;;4962265;28;20485;-60
2023/12/29 09:36:29;;;;;;;0.63;0.35;;;21.20;42.90;;;;;;4971721;28;20385;-58
2023/12/29 09:38:55;;;;;;;0.68;0.35;;;21.20;42.90;;;;;;4967729;28;20023;-57
2023/12/29 09:41:23;;;;;;;0.95;0.30;;;21.20;42.80;;;;;;4976023;28;20038;-58
2023/12/29 09:43:50;;;;;;;0.80;0.32;;;21.20;42.80;;;;;;4976227;28;20444;-57
2023/12/29 09:46:20;;;;;;;0.93;0.30;;;21.30;42.80;;;;;;4958195;28;20410;-59
2023/12/29 09:48:47;;;;;;;1.52;0.55;;;21.30;42.80;;;;;;4957109;28;20109;-55
2023/12/29 09:51:16;;;;;;;1.30;0.57;;;21.30;42.80;;;;;;4974757;28;20049;-59
2023/12/29 09:53:42;;;;;;;0.95;0.45;;;21.30;42.80;;;;;;4976290;28;20417;-59
2023/12/29 09:56:09;;;;;;;1.40;0.43;;;21.30;42.70;;;;;;4976680;28;20042;-59
2023/12/29 09:58:38;;;;;;;1.13;0.32;;;21.20;42.70;;;;;;4980143;28;20059;-62
2023/12/29 10:01:05;;;;;;;1.27;0.40;;;21.20;42.70;;;;;;4979208;28;20049;-57
2023/12/29 10:03:31;;;;;;;1.30;0.30;;;21.20;42.70;;;;;;4980283;28;20124;-65
2023/12/29 10:06:00;;;;;;;0.75;0.32;;;21.20;42.70;;;;;;4979217;28;20068;-59
2023/12/29 10:08:28;;;;;;;1.08;0.30;;;21.20;42.70;;;;;;4977355;28;20046;-60
2023/12/29 10:10:58;;;;;;;1.52;0.60;;;21.20;42.70;;;;;;4973424;28;20476;-59
2023/12/29 10:13:24;;;;;;;1.20;0.60;;;21.20;42.90;;;;;;4970598;28;20023;-60
2023/12/29 10:16:00;;;;;;;1.10;0.25;;;21.20;43.00;;;;;;4987906;28;20076;-60
2023/12/29 10:18:44;;;;;;;0.90;0.40;;;21.20;43.00;;;;;;4980240;28;20031;-58
2023/12/29 10:21:16;;;;;;;1.33;0.47;;;21.20;43.10;;;;;;4963558;28;20410;-65
2023/12/29 10:24:05;;;;;;;1.30;0.50;;;21.20;43.10;;;;;;4960674;28;20142;-56
2023/12/29 10:26:32;;;;;;;1.38;0.43;;;21.20;43.20;;;;;;4959978;28;20094;-59
2023/12/29 10:28:58;;;;;;;0.95;0.30;;;21.20;43.20;;;;;;4960278;29;20078;-57
2023/12/29 10:31:24;;;;;;;1.35;0.40;;;21.20;43.20;;;;;;4960282;29;20163;-57
2023/12/29 10:33:52;;;;;;;1.42;0.47;;;21.10;43.20;;;;;;4967076;28;20023;-59
2023/12/29 10:36:17;;;;;;;0.90;0.40;;;21.20;43.20;;;;;;4974540;28;20530;-57
2023/12/29 10:38:44;;;;;;;0.75;0.30;;;21.20;43.20;;;;;;4969819;28;20114;-60
2023/12/29 10:41:14;;;;;;;0.70;0.30;;;21.20;43.20;;;;;;4969890;28;20038;-59
2023/12/29 10:43:47;;;;;;;0.93;0.40;;;21.10;43.10;;;;;;4965656;28;20465;-60
2023/12/29 10:46:13;;;;;;;0.95;0.40;;;21.10;43.10;;;;;;4964540;28;20043;-59
2023/12/29 10:48:39;;;;;;;0.90;0.47;;;21.10;43.10;;;;;;4967936;28;20045;-59
2023/12/29 10:51:05;;;;;;;0.50;0.30;;;21.10;43.10;;;;;;4970552;28;20031;-60
2023/12/29 10:53:36;;;;;;;2.20;0.40;;;21.10;43.10;;;;;;4969810;28;20123;-60
2023/12/29 10:56:02;;;;;;;1.20;0.35;;;21.10;43.10;;;;;;4969573;28;20109;-59
2023/12/29 10:58:29;;;;;;;1.58;0.40;;;21.10;43.20;;;;;;4977264;28;20058;-58
2023/12/29 11:00:59;;;;;;;0.98;0.40;;;21.10;43.10;;;;;;4986378;28;20035;-58
2023/12/29 11:03:26;;;;;;;0.70;0.28;;;21.10;43.10;;;;;;4978547;28;20034;-58
2023/12/29 11:06:02;;;;;;;0.93;0.30;;;21.10;43.10;;;;;;4966183;28;20102;-61
2023/12/29 11:08:36;;;;;;;0.75;0.28;;;21.10;43.10;;;;;;4975384;28;20082;-59
2023/12/29 11:11:04;;;;;;;0.73;0.22;;;21.10;43.10;;;;;;4971045;28;20042;-61
2023/12/29 11:13:30;;;;;;;1.85;0.63;;;21.10;43.10;;;;;;4969322;28;20447;-57
2023/12/29 11:15:57;;;;;;;1.30;0.30;;;21.10;43.10;;;;;;4969503;28;20035;-61
2023/12/29 11:18:23;;;;;;;3.47;0.40;;;21.10;43.20;;;;;;4968270;28;20534;-59
2023/12/29 11:20:49;;;;;;;0.38;0.25;;;21.10;43.20;;;;;;4969257;28;20110;-62
2023/12/29 11:23:16;;;;;;;0.63;0.30;;;21.10;43.20;;;;;;4964511;28;20393;-59
2023/12/29 11:25:46;;;;;;;0.98;0.30;;;21.10;43.20;;;;;;4963521;28;20340;-59
2023/12/29 11:28:12;;;;;;;2.28;0.40;;;21.10;43.20;;;;;;4976045;28;20058;-61
2023/12/29 11:30:39;;;;;;;0.88;0.35;;;21.10;43.20;;;;;;4963724;28;20031;-59
2023/12/29 11:33:17;;;;;;;1.05;0.32;;;21.10;43.20;;;;;;4962828;28;20042;-60
2023/12/29 11:35:51;;;;;;;3.88;0.35;;;21.10;43.10;;;;;;4965043;28;20450;-61
2023/12/29 11:38:35;;;;;;;;;;;21.10;43.00;;;;;;4959317;28;20031;-62
2023/12/29 11:41:19;;;;;;;0.45;0.22;;;21.20;43.10;;;;;;4974794;28;19968;-60
2023/12/29 11:43:45;;;;;;;0.22;0.10;;;21.20;43.00;;;;;;4973505;28;20365;-61
2023/12/29 11:46:34;;;;;;;0.38;0.20;;;21.20;42.90;;;;;;4976238;28;20030;-60
2023/12/29 11:49:04;;;;;;;0.75;0.20;;;21.20;42.80;;;;;;4978705;28;20038;-59
2023/12/29 11:51:40;;;;;;;1.05;0.30;;;21.30;42.90;;;;;;4975805;28;20026;-62
2023/12/29 11:54:07;;;;;;;0.82;0.30;;;21.30;42.80;;;;;;4975691;28;20426;-57
2023/12/29 11:56:40;;;;;;;0.70;0.30;;;21.30;42.70;;;;;;4970596;28;20474;-59
2023/12/29 11:59:23;;;;;;;0.73;0.30;;;21.30;42.60;;;;;;4963604;28;20043;-59
2023/12/29 12:02:00;;;;;;;0.68;0.40;;;21.40;42.60;;;;;;4970364;28;20039;-48
2023/12/29 12:04:44;;;;;;;1.60;0.30;;;21.40;42.60;;;;;;4976070;28;20066;-60
2023/12/29 12:07:16;;;;;;;1.08;0.28;;;21.40;42.50;;;;;;4975958;28;20047;-61
2023/12/29 12:09:41;;;;;;;1.10;0.40;;;21.40;42.50;;;;;;4968746;28;20031;-57
2023/12/29 12:12:07;;;;;;;0.50;0.25;;;21.40;43.10;;;;;;4971023;28;20627;-53
2023/12/29 12:14:53;;;;;;;1.77;0.40;;;21.40;42.50;;;;;;4969938;28;20811;-53
2023/12/29 12:17:35;;;;;;;1.20;0.50;;;21.50;42.60;;;;;;4969643;28;20086;-57
2023/12/29 12:20:10;;;;;;;1.33;0.50;;;21.50;42.60;;;;;;4970016;28;20035;-50
2023/12/29 12:22:37;;;;;;;1.65;0.50;;;21.50;42.50;;;;;;4964526;28;20120;-58
2023/12/29 12:25:06;;;;;;;0.93;0.40;;;21.60;42.60;;;;;;4970722;28;20051;-55
2023/12/29 12:27:33;;;;;;;1.58;0.40;;;21.60;42.50;;;;;;4970807;28;20109;-53
2023/12/29 12:29:59;;;;;;;1.55;0.40;;;21.70;42.50;;;;;;4976443;28;20119;-51
2023/12/29 12:32:26;;;;;;;1.05;0.40;;;21.70;42.50;;;;;;4965093;28;20350;-51
2023/12/29 12:34:52;;;;;;;1.00;0.40;;;21.70;42.50;;;;;;4959470;28;20494;-54
2023/12/29 12:37:22;;;;;;;2.05;0.52;;;21.70;42.40;;;;;;4970049;28;20027;-54
2023/12/29 12:40:30;;;;;;;0.93;0.40;;;21.70;42.40;;;;;;5209243;23;20548;-58
2023/12/29 12:42:55;;;;;;;0.98;0.40;;;21.80;42.30;;;;;;4948516;28;20094;-61
2023/12/29 12:45:22;;;;;;;1.85;0.40;;;21.80;42.20;;;;;;4946528;29;20419;-63
2023/12/29 12:47:55;;;;;;;1.17;0.52;;;21.80;42.20;;;;;;4939375;29;20071;-64
2023/12/29 12:50:21;;;;;;;0.98;0.47;;;21.80;42.10;;;;;;4944806;28;20035;-62